Terminal Aerodrome Forecast
Issued by NWS Wakefield, VA

Home | Current Version | Previous Version | Text Only | Print | Product List | Glossary On
Versions: 1 2 3 4 5 6 7 8 9 10 11 12 13
000
FTUS41 KAKQ 241700
TAFORF
TAF
KORF 241727Z 2418/2518 36007KT P6SM SKC
     FM242300 VRB03KT P6SM FEW250
     FM251400 18013KT P6SM FEW050 BKN200=

USA.gov is the U.S. government's official web portal to all federal, state and local government web resources and services.